createdAt,value
2023-04-18T00:02:23.665Z,102608.75
2023-04-18T00:05:27.164Z,102609.69
2023-04-18T00:08:31.270Z,102614.97
2023-04-18T00:11:34.448Z,102606.16
2023-04-18T00:14:37.767Z,102614.97
2023-04-18T00:17:40.883Z,102614.06
2023-04-18T00:20:43.644Z,102613.22
2023-04-18T00:23:47.809Z,102606.19
2023-04-18T00:26:50.536Z,102610.59
2023-04-18T00:29:53.179Z,102610.56
2023-04-18T00:32:55.872Z,102607.94
2023-04-18T00:35:58.509Z,102615.00
2023-04-18T00:39:02.746Z,102603.53
2023-04-18T00:42:05.652Z,102614.97
2023-04-18T00:45:09.145Z,102609.69
2023-04-18T00:48:12.174Z,102612.38
2023-04-18T00:51:14.972Z,102611.47
2023-04-18T00:54:19.765Z,102606.19
2023-04-18T00:57:23.273Z,102599.16
2023-04-18T01:00:26.199Z,102605.31
2023-04-18T01:03:29.035Z,102601.81
2023-04-18T01:06:32.006Z,102602.69
2023-04-18T01:09:36.139Z,102607.06
2023-04-18T01:12:38.885Z,102600.03
2023-04-18T01:15:43.565Z,102597.41
2023-04-18T01:18:46.269Z,102599.16
2023-04-18T01:21:48.888Z,102600.91
2023-04-18T01:24:53.081Z,102605.31
2023-04-18T01:27:58.757Z,102607.09
2023-04-18T01:31:01.630Z,102611.50
2023-04-18T01:34:04.973Z,102605.31
2023-04-18T01:37:07.652Z,102606.19
2023-04-18T01:40:12.813Z,102600.91
2023-04-18T01:43:15.460Z,102607.94
2023-04-18T01:46:18.188Z,102602.69
2023-04-18T01:49:20.889Z,102606.22
2023-04-18T01:52:23.533Z,102607.97
2023-04-18T01:55:27.646Z,102602.69
2023-04-18T01:58:30.331Z,102599.16
2023-04-18T02:01:33.009Z,102602.69
2023-04-18T02:04:35.752Z,102601.81
2023-04-18T02:07:38.409Z,102591.25
2023-04-18T02:10:42.623Z,102591.25
2023-04-18T02:13:45.307Z,102591.22
2023-04-18T02:16:47.964Z,102588.63
2023-04-18T02:19:51.931Z,102590.38
2023-04-18T02:22:54.521Z,102595.63
2023-04-18T02:25:58.569Z,102593.91
2023-04-18T02:29:01.246Z,102593.00
2023-04-18T02:32:04.381Z,102602.69
2023-04-18T02:35:07.640Z,102591.25
2023-04-18T02:38:10.307Z,102595.63
2023-04-18T02:41:17.361Z,102600.94
2023-04-18T02:44:20.027Z,102595.63
2023-04-18T02:47:22.726Z,102605.34
2023-04-18T02:50:25.645Z,102598.28
2023-04-18T02:53:28.300Z,102599.19
2023-04-18T02:56:32.288Z,102604.44
2023-04-18T02:59:34.935Z,102611.47
2023-04-18T03:02:37.686Z,102603.56
2023-04-18T03:05:40.558Z,102604.44
2023-04-18T03:08:43.156Z,102615.88
2023-04-18T03:11:47.571Z,102611.47
2023-04-18T03:14:50.216Z,102610.56
2023-04-18T03:17:52.864Z,102617.63
2023-04-18T03:20:55.603Z,102618.50
2023-04-18T03:23:58.229Z,102625.50
2023-04-18T03:27:02.296Z,102621.09
2023-04-18T03:30:05.790Z,102629.00
2023-04-18T03:33:08.623Z,102622.84
2023-04-18T03:36:11.917Z,102630.78
2023-04-18T03:39:14.608Z,102626.38
2023-04-18T03:42:18.613Z,102630.75
2023-04-18T03:45:21.234Z,102636.94
2023-04-18T03:48:23.889Z,102628.13
2023-04-18T03:51:26.539Z,102637.78
2023-04-18T03:54:29.261Z,102641.28
2023-04-18T03:57:33.231Z,102636.03
2023-04-18T04:00:35.999Z,102644.75
2023-04-18T04:03:38.855Z,102643.00
2023-04-18T04:06:41.904Z,102642.13
2023-04-18T04:09:44.551Z,102638.59
2023-04-18T04:12:48.585Z,102641.28
2023-04-18T04:15:51.577Z,102644.75
2023-04-18T04:18:54.245Z,102645.66
2023-04-18T04:21:56.941Z,102648.25
2023-04-18T04:25:00.763Z,102647.41
2023-04-18T04:28:06.686Z,102657.06
2023-04-18T04:31:10.355Z,102651.75
2023-04-18T04:34:13.187Z,102661.44
2023-04-18T04:37:18.675Z,102664.91
2023-04-18T04:40:22.914Z,102667.56
2023-04-18T04:43:28.711Z,102672.84
2023-04-18T04:46:31.743Z,102668.50
2023-04-18T04:49:34.427Z,102680.75
2023-04-18T04:52:38.458Z,102672.00
2023-04-18T04:55:41.325Z,102680.75
2023-04-18T04:58:45.760Z,102684.34
2023-04-18T05:01:48.497Z,102684.38
2023-04-18T05:04:51.278Z,102683.50
2023-04-18T05:07:53.962Z,102694.03
2023-04-18T05:10:56.678Z,102693.13
2023-04-18T05:14:00.679Z,102691.41
2023-04-18T05:17:04.120Z,102692.16
2023-04-18T05:20:07.959Z,102688.78
2023-04-18T05:23:10.638Z,102689.69
2023-04-18T05:26:13.322Z,102693.19
2023-04-18T05:29:17.345Z,102686.97
2023-04-18T05:32:21.129Z,102692.38
2023-04-18T05:35:23.847Z,102696.72
2023-04-18T05:38:26.580Z,102688.78
2023-04-18T05:41:29.303Z,102694.13
2023-04-18T05:44:33.358Z,102693.28
2023-04-18T05:47:36.051Z,102695.03
2023-04-18T05:50:38.787Z,102699.47
2023-04-18T05:53:41.457Z,102703.00
2023-04-18T05:56:44.257Z,102703.00
2023-04-18T05:59:48.332Z,102705.69
2023-04-18T06:02:51.338Z,102700.44
2023-04-18T06:05:54.437Z,102714.53
2023-04-18T06:08:57.215Z,102707.50
2023-04-18T06:11:59.884Z,102711.91
2023-04-18T06:15:05.436Z,102714.56
2023-04-18T06:18:08.211Z,102714.56
2023-04-18T06:21:10.920Z,102712.78
2023-04-18T06:24:13.872Z,102716.31
2023-04-18T06:27:28.264Z,102715.47
2023-04-18T06:30:35.020Z,102711.03
2023-04-18T06:33:38.570Z,102711.06
2023-04-18T06:36:41.266Z,102705.75
2023-04-18T06:39:43.921Z,102705.75
2023-04-18T06:42:46.733Z,102706.63
2023-04-18T06:45:50.869Z,102705.78
2023-04-18T06:48:53.597Z,102711.91
2023-04-18T06:51:56.220Z,102711.88
2023-04-18T06:54:58.865Z,102713.59
2023-04-18T06:58:01.590Z,102732.09
2023-04-18T07:01:05.684Z,102729.44
2023-04-18T07:04:08.464Z,102739.16
2023-04-18T07:07:11.202Z,102728.56
2023-04-18T07:10:13.929Z,102722.41
2023-04-18T07:13:16.592Z,102731.22
2023-04-18T07:16:20.841Z,102740.03
2023-04-18T07:19:23.504Z,102736.38
2023-04-18T07:22:26.229Z,102732.00
2023-04-18T07:25:29.102Z,102732.81
2023-04-18T07:28:32.809Z,102741.56
2023-04-18T07:31:36.878Z,102739.63
2023-04-18T07:34:40.211Z,102727.13
2023-04-18T07:37:42.968Z,102727.78
2023-04-18T07:40:46.111Z,102726.84
2023-04-18T07:43:48.825Z,102731.34
2023-04-18T07:46:52.999Z,102729.34
2023-04-18T07:49:56.724Z,102726.69
2023-04-18T07:52:59.365Z,102725.06
2023-04-18T07:56:01.989Z,102721.34
2023-04-18T07:59:04.716Z,102732.53
2023-04-18T08:02:09.061Z,102733.16
2023-04-18T08:05:11.983Z,102723.03
2023-04-18T08:08:14.685Z,102726.25
2023-04-18T08:11:17.311Z,102701.72
2023-04-18T08:14:19.983Z,102717.69
2023-04-18T08:17:24.992Z,102715.91
2023-04-18T08:20:28.068Z,102727.59
2023-04-18T08:23:30.728Z,102726.88
2023-04-18T08:26:33.395Z,102730.38
2023-04-18T08:29:36.065Z,102742.13
2023-04-18T08:32:40.129Z,102745.78
2023-04-18T08:35:42.981Z,102736.00
2023-04-18T08:38:45.580Z,102739.28
2023-04-18T08:41:54.601Z,102736.59
2023-04-18T08:44:59.511Z,102739.47
2023-04-18T08:48:03.917Z,102732.72
2023-04-18T08:51:06.920Z,102735.25
2023-04-18T08:54:09.955Z,102733.63
2023-04-18T08:57:16.341Z,102729.84
2023-04-18T09:00:19.690Z,102728.03
2023-04-18T09:03:41.565Z,102719.19
2023-04-18T09:06:53.452Z,102733.44
2023-04-18T09:09:58.135Z,102739.13
2023-04-18T09:13:03.000Z,102728.56
2023-04-18T09:16:07.177Z,102731.75
2023-04-18T09:19:13.926Z,102731.78
2023-04-18T09:22:17.804Z,102735.69
2023-04-18T09:25:29.218Z,102736.63
2023-04-18T09:28:34.053Z,102749.38
2023-04-18T09:31:37.761Z,102751.22
2023-04-18T09:34:44.030Z,102742.28
2023-04-18T09:37:51.409Z,102734.84
2023-04-18T09:41:08.516Z,102738.47
2023-04-18T09:44:14.479Z,102730.44
2023-04-18T09:47:18.028Z,102738.38
2023-04-18T09:50:22.304Z,102741.16
2023-04-18T09:53:25.731Z,102737.59
2023-04-18T09:56:32.996Z,102746.38
2023-04-18T09:59:47.499Z,102741.91
2023-04-18T10:02:57.614Z,102743.34
2023-04-18T10:06:01.825Z,102736.56
2023-04-18T10:09:05.739Z,102732.75
2023-04-18T10:12:08.792Z,102737.09
2023-04-18T10:15:12.470Z,102734.25
2023-04-18T10:18:16.260Z,102736.72
2023-04-18T10:21:20.445Z,102735.25
2023-04-18T10:24:47.809Z,102731.88
2023-04-18T10:27:57.379Z,102729.84
2023-04-18T10:31:03.947Z,102733.41
2023-04-18T10:34:08.061Z,102734.59
2023-04-18T10:37:13.815Z,102739.56
2023-04-18T10:40:16.601Z,102725.25
2023-04-18T10:43:19.279Z,102724.16
2023-04-18T10:46:31.751Z,102727.81
2023-04-18T10:49:37.322Z,102726.06
2023-04-18T10:52:41.659Z,102734.19
2023-04-18T10:55:54.319Z,102726.94
2023-04-18T10:59:02.234Z,102727.72
2023-04-18T11:02:13.495Z,102728.63
2023-04-18T11:05:21.835Z,102736.06
2023-04-18T11:08:25.836Z,102725.53
2023-04-18T11:11:28.539Z,102721.84
2023-04-18T11:14:40.722Z,102726.06
2023-04-18T11:17:43.395Z,102727.75
2023-04-18T11:20:48.981Z,102719.19
2023-04-18T11:23:53.081Z,102723.00
2023-04-18T11:26:56.201Z,102724.81
2023-04-18T11:29:59.065Z,102723.28
2023-04-18T11:33:06.288Z,102724.09
2023-04-18T11:36:09.626Z,102720.22
2023-04-18T11:39:14.242Z,102716.06
2023-04-18T11:42:16.936Z,102720.84
2023-04-18T11:45:19.608Z,102726.72
2023-04-18T11:48:22.481Z,102723.66
2023-04-18T11:51:35.739Z,102724.25
2023-04-18T11:54:44.781Z,102725.91
2023-04-18T11:57:52.778Z,102719.06
2023-04-18T12:00:55.456Z,102728.63
2023-04-18T12:04:02.731Z,102726.69
2023-04-18T12:07:05.689Z,102721.84
2023-04-18T12:10:25.055Z,102711.09
2023-04-18T12:13:32.842Z,102716.16
2023-04-18T12:16:36.125Z,102709.44
2023-04-18T12:19:38.924Z,102714.09
2023-04-18T12:22:44.119Z,102723.16
2023-04-18T12:25:59.778Z,102717.53
2023-04-18T12:29:02.400Z,102715.19
2023-04-18T12:32:05.368Z,102714.50
2023-04-18T12:35:09.047Z,102703.13
2023-04-18T12:38:11.650Z,102698.19
2023-04-18T12:41:15.640Z,102711.22
2023-04-18T12:44:18.321Z,102706.19
2023-04-18T12:47:21.093Z,102713.06
2023-04-18T12:50:25.926Z,102688.38
2023-04-18T12:53:28.734Z,102703.59
2023-04-18T12:56:32.738Z,102699.19
2023-04-18T12:59:35.434Z,102692.91
2023-04-18T13:02:39.194Z,102699.94
2023-04-18T13:05:42.137Z,102693.94
2023-04-18T13:08:46.317Z,102700.25
2023-04-18T13:11:50.399Z,102689.56
2023-04-18T13:14:53.050Z,102688.38
2023-04-18T13:17:57.105Z,102691.69
2023-04-18T13:20:59.791Z,102688.59
2023-04-18T13:24:02.459Z,102691.97
2023-04-18T13:27:10.360Z,102678.47
2023-04-18T13:30:13.354Z,102681.41
2023-04-18T13:33:17.460Z,102684.56
2023-04-18T13:36:20.105Z,102687.97
2023-04-18T13:39:24.300Z,102689.81
2023-04-18T13:42:28.344Z,102684.34
2023-04-18T13:45:31.012Z,102682.84
2023-04-18T13:48:33.680Z,102681.69
2023-04-18T13:51:37.468Z,102678.41
2023-04-18T13:54:41.223Z,102674.16
2023-04-18T13:57:45.793Z,102677.31
2023-04-18T14:00:48.440Z,102667.63
2023-04-18T14:03:51.218Z,102664.34
2023-04-18T14:06:53.977Z,102666.75
2023-04-18T14:09:56.600Z,102670.78
2023-04-18T14:13:00.602Z,102678.50
2023-04-18T14:16:04.450Z,102670.94
2023-04-18T14:19:07.498Z,102668.00
2023-04-18T14:22:10.141Z,102673.69
2023-04-18T14:25:12.929Z,102668.13
2023-04-18T14:28:20.830Z,102682.50
2023-04-18T14:31:23.640Z,102672.81
2023-04-18T14:34:26.296Z,102673.28
2023-04-18T14:37:28.938Z,102678.44
2023-04-18T14:40:32.889Z,102679.88
2023-04-18T14:43:37.122Z,102675.22
2023-04-18T14:46:39.889Z,102677.88
2023-04-18T14:49:46.510Z,102670.59
2023-04-18T14:52:49.229Z,102677.16
2023-04-18T14:55:52.193Z,102670.56
2023-04-18T14:58:56.204Z,102667.34
2023-04-18T15:01:58.901Z,102676.13
2023-04-18T15:05:01.748Z,102670.94
2023-04-18T15:08:06.786Z,102670.13
2023-04-18T15:11:09.523Z,102656.94
2023-04-18T15:14:13.829Z,102659.50
2023-04-18T15:17:16.812Z,102659.91
2023-04-18T15:20:20.790Z,102660.06
2023-04-18T15:23:25.105Z,102653.28
2023-04-18T15:26:27.718Z,102665.81
2023-04-18T15:29:31.954Z,102661.88
2023-04-18T15:32:34.633Z,102658.38
2023-04-18T15:35:37.330Z,102662.94
2023-04-18T15:38:40.201Z,102661.09
2023-04-18T15:41:43.001Z,102653.97
2023-04-18T15:44:46.981Z,102650.16
2023-04-18T15:47:49.737Z,102656.06
2023-04-18T15:50:52.738Z,102660.84
2023-04-18T15:53:55.734Z,102655.63
2023-04-18T15:56:59.096Z,102662.13
2023-04-18T16:00:04.096Z,102664.63
2023-04-18T16:03:09.891Z,102651.03
2023-04-18T16:06:12.794Z,102658.53
2023-04-18T16:09:16.264Z,102657.31
2023-04-18T16:12:18.909Z,102654.88
2023-04-18T16:15:22.951Z,102652.91
2023-04-18T16:18:25.691Z,102674.59
2023-04-18T16:21:29.267Z,102665.94
2023-04-18T16:24:32.084Z,102670.13
2023-04-18T16:27:34.943Z,102670.13
2023-04-18T16:30:39.055Z,102657.84
2023-04-18T16:33:41.835Z,102674.22
2023-04-18T16:36:44.701Z,102660.91
2023-04-18T16:39:47.372Z,102680.34
2023-04-18T16:42:50.085Z,102672.81
2023-04-18T16:45:56.222Z,102679.56
2023-04-18T16:48:59.246Z,102674.59
2023-04-18T16:52:02.526Z,102675.34
2023-04-18T16:55:06.656Z,102672.94
2023-04-18T16:58:09.620Z,102677.59
2023-04-18T17:01:13.626Z,102678.78
2023-04-18T17:04:16.625Z,102687.63
2023-04-18T17:07:19.615Z,102674.44
2023-04-18T17:10:22.727Z,102684.28
2023-04-18T17:13:26.946Z,102680.78
2023-04-18T17:16:31.193Z,102690.25
2023-04-18T17:19:34.088Z,102684.34
2023-04-18T17:22:36.778Z,102686.09
2023-04-18T17:25:39.451Z,102687.88
2023-04-18T17:28:42.240Z,102689.88
2023-04-18T17:31:46.255Z,102699.69
2023-04-18T17:34:48.914Z,102694.75
2023-04-18T17:37:52.793Z,102690.50
2023-04-18T17:40:59.902Z,102696.41
2023-04-18T17:44:02.562Z,102699.28
2023-04-18T17:47:06.590Z,102708.19
2023-04-18T17:50:09.876Z,102700.63
2023-04-18T17:53:12.770Z,102710.53
2023-04-18T17:56:15.540Z,102708.78
2023-04-18T17:59:18.166Z,102703.69
2023-04-18T18:02:23.285Z,102705.50
2023-04-18T18:05:26.119Z,102714.31
2023-04-18T18:08:29.546Z,102711.88
2023-04-18T18:11:32.262Z,102711.97
2023-04-18T18:14:34.926Z,102716.44
2023-04-18T18:17:38.995Z,102718.56
2023-04-18T18:20:42.918Z,102729.91
2023-04-18T18:23:45.827Z,102731.53
2023-04-18T18:26:51.421Z,102732.63
2023-04-18T18:29:54.392Z,102738.97
2023-04-18T18:32:58.695Z,102743.50
2023-04-18T18:36:01.568Z,102742.00
2023-04-18T18:39:04.506Z,102747.09
2023-04-18T18:42:07.287Z,102748.88
2023-04-18T18:45:10.864Z,102757.50
2023-04-18T18:48:15.344Z,102754.28
2023-04-18T18:51:19.177Z,102756.00
2023-04-18T18:54:21.797Z,102759.59
2023-04-18T18:57:24.459Z,102768.69
2023-04-18T19:00:27.652Z,102767.75
2023-04-18T19:03:31.771Z,102767.75
2023-04-18T19:06:34.576Z,102769.69
2023-04-18T19:09:37.661Z,102782.97
2023-04-18T19:12:40.337Z,102778.44
2023-04-18T19:15:42.994Z,102782.09
2023-04-18T19:18:47.001Z,102785.66
2023-04-18T19:21:50.064Z,102784.00
2023-04-18T19:24:52.835Z,102785.00
2023-04-18T19:27:55.451Z,102786.84
2023-04-18T19:30:58.258Z,102786.88
2023-04-18T19:34:02.677Z,102781.63
2023-04-18T19:37:05.715Z,102791.38
2023-04-18T19:40:09.438Z,102793.16
2023-04-18T19:43:12.083Z,102792.38
2023-04-18T19:46:14.760Z,102796.81
2023-04-18T19:49:18.770Z,102785.31
2023-04-18T19:52:21.403Z,102787.16
2023-04-18T19:55:24.350Z,102788.94
2023-04-18T19:58:37.830Z,102785.41
2023-04-18T20:01:40.560Z,102792.56
2023-04-18T20:04:44.912Z,102781.94
2023-04-18T20:07:47.985Z,102790.81
2023-04-18T20:10:50.711Z,102781.13
2023-04-18T20:13:54.960Z,102787.38
2023-04-18T20:16:57.813Z,102783.88
2023-04-18T20:20:01.867Z,102785.63
2023-04-18T20:23:04.527Z,102789.19
2023-04-18T20:26:07.642Z,102788.31
2023-04-18T20:29:10.305Z,102793.63
2023-04-18T20:32:13.081Z,102800.72
2023-04-18T20:35:17.382Z,102810.47
2023-04-18T20:38:20.099Z,102812.19
2023-04-18T20:41:24.114Z,102812.16
2023-04-18T20:44:28.140Z,102808.69
2023-04-18T20:47:30.787Z,102815.78
2023-04-18T20:50:34.843Z,102814.06
2023-04-18T20:53:37.514Z,102815.81
2023-04-18T20:56:40.246Z,102817.59
2023-04-18T20:59:42.891Z,102825.50
2023-04-18T21:02:45.826Z,102820.28
2023-04-18T21:05:49.928Z,102824.69
2023-04-18T21:08:52.567Z,102821.19
2023-04-18T21:11:55.162Z,102830.03
2023-04-18T21:14:57.948Z,102830.03
2023-04-18T21:18:00.634Z,102831.78
2023-04-18T21:21:05.719Z,102823.00
2023-04-18T21:24:08.573Z,102834.47
2023-04-18T21:27:11.432Z,102838.91
2023-04-18T21:30:14.598Z,102829.19
2023-04-18T21:33:17.636Z,102823.88
2023-04-18T21:36:21.684Z,102828.34
2023-04-18T21:39:24.413Z,102837.16
2023-04-18T21:42:27.011Z,102838.03
2023-04-18T21:45:29.655Z,102831.88
2023-04-18T21:48:32.310Z,102832.72
2023-04-18T21:51:36.341Z,102840.66
2023-04-18T21:54:39.768Z,102838.03
2023-04-18T21:57:42.419Z,102836.28
2023-04-18T22:00:45.083Z,102831.88
2023-04-18T22:03:47.904Z,102834.50
2023-04-18T22:06:53.989Z,102825.69
2023-04-18T22:09:57.951Z,102834.47
2023-04-18T22:13:00.990Z,102832.69
2023-04-18T22:16:04.237Z,102830.06
2023-04-18T22:19:08.972Z,102825.69
2023-04-18T22:22:13.041Z,102823.91
2023-04-18T22:25:15.707Z,102824.75
2023-04-18T22:28:18.352Z,102820.34
2023-04-18T22:31:21.216Z,102817.69
2023-04-18T22:34:23.916Z,102825.63
2023-04-18T22:37:27.929Z,102825.63
2023-04-18T22:40:30.608Z,102813.31
2023-04-18T22:43:33.844Z,102820.34
2023-04-18T22:46:38.418Z,102826.47
2023-04-18T22:49:41.993Z,102822.97
2023-04-18T22:52:46.048Z,102822.97
2023-04-18T22:55:48.711Z,102822.97
2023-04-18T22:58:51.514Z,102822.91
2023-04-18T23:01:54.284Z,102823.84
2023-04-18T23:04:58.321Z,102828.25
2023-04-18T23:08:02.621Z,102827.31
2023-04-18T23:11:05.316Z,102812.34
2023-04-18T23:14:11.459Z,102825.53
2023-04-18T23:17:14.110Z,102816.72
2023-04-18T23:20:16.797Z,102813.19
2023-04-18T23:23:20.792Z,102812.34
2023-04-18T23:26:23.839Z,102809.69
2023-04-18T23:29:26.547Z,102803.50
2023-04-18T23:32:29.228Z,102805.22
2023-04-18T23:35:31.839Z,102801.69
2023-04-18T23:38:37.158Z,102799.03
2023-04-18T23:41:39.853Z,102805.19
2023-04-18T23:44:42.495Z,102800.72
2023-04-18T23:47:45.183Z,102795.47
2023-04-18T23:50:49.282Z,102802.53
2023-04-18T23:53:53.256Z,102798.06
2023-04-18T23:56:57.031Z,102790.25
2023-04-18T23:59:59.669Z,102791.06
